createdAt,value
2023-05-13T00:01:42.423Z,58.90
2023-05-13T00:04:09.274Z,59.23
2023-05-13T00:06:36.243Z,59.41
2023-05-13T00:09:03.509Z,59.53
2023-05-13T00:11:30.405Z,59.40
2023-05-13T00:13:57.740Z,59.60
2023-05-13T00:16:27.712Z,59.73
2023-05-13T00:18:55.519Z,60.05
2023-05-13T00:21:22.606Z,59.76
2023-05-13T00:23:49.656Z,59.89
2023-05-13T00:26:16.587Z,59.91
2023-05-13T00:28:44.992Z,60.40
2023-05-13T00:31:11.809Z,60.24
2023-05-13T00:33:38.792Z,60.35
2023-05-13T00:36:06.477Z,60.73
2023-05-13T00:38:33.462Z,60.61
2023-05-13T00:41:00.201Z,60.55
2023-05-13T00:43:27.471Z,60.86
2023-05-13T00:45:54.566Z,61.36
2023-05-13T00:48:21.622Z,61.49
2023-05-13T00:50:48.671Z,61.56
2023-05-13T00:53:15.700Z,62.00
2023-05-13T00:55:46.056Z,62.11
2023-05-13T00:58:13.707Z,62.20
2023-05-13T01:01:17.982Z,62.28
2023-05-13T01:04:20.424Z,62.65
2023-05-13T01:07:02.598Z,63.04
2023-05-13T01:09:54.999Z,62.83
2023-05-13T01:12:35.426Z,63.08
2023-05-13T01:15:12.285Z,63.04
2023-05-13T01:18:00.608Z,63.63
2023-05-13T01:20:27.578Z,63.99
2023-05-13T01:22:54.843Z,64.15
2023-05-13T01:25:21.953Z,64.19
2023-05-13T01:27:49.086Z,64.30
2023-05-13T01:30:16.476Z,64.69
2023-05-13T01:32:43.336Z,64.93
2023-05-13T01:35:10.881Z,65.12
2023-05-13T01:37:39.943Z,65.46
2023-05-13T01:40:14.378Z,65.39
2023-05-13T01:42:47.498Z,65.71
2023-05-13T01:45:14.714Z,66.02
2023-05-13T01:47:41.581Z,66.05
2023-05-13T01:50:09.084Z,65.55
2023-05-13T01:52:35.961Z,65.41
2023-05-13T01:55:02.849Z,65.17
2023-05-13T01:57:30.382Z,64.70
2023-05-13T01:59:57.550Z,64.47
2023-05-13T02:02:24.983Z,64.41
2023-05-13T02:04:51.800Z,64.48
2023-05-13T02:07:18.591Z,64.49
2023-05-13T02:09:45.943Z,64.54
2023-05-13T02:12:12.698Z,64.83
2023-05-13T02:14:39.654Z,64.72
2023-05-13T02:17:06.489Z,65.04
2023-05-13T02:19:33.242Z,64.97
2023-05-13T02:22:00.054Z,65.46
2023-05-13T02:24:26.876Z,65.32
2023-05-13T02:26:54.493Z,65.71
2023-05-13T02:29:21.400Z,65.84
2023-05-13T02:31:48.152Z,66.00
2023-05-13T02:34:14.989Z,66.15
2023-05-13T02:36:41.773Z,66.44
2023-05-13T02:39:09.158Z,66.52
2023-05-13T02:41:36.492Z,66.41
2023-05-13T02:44:03.544Z,66.61
2023-05-13T02:46:30.834Z,66.77
2023-05-13T02:48:57.714Z,66.58
2023-05-13T02:51:24.487Z,66.43
2023-05-13T02:53:51.881Z,66.26
2023-05-13T02:56:19.020Z,66.47
2023-05-13T02:58:46.002Z,67.04
2023-05-13T03:01:12.953Z,66.86
2023-05-13T03:03:39.888Z,66.66
2023-05-13T03:06:07.206Z,66.95
2023-05-13T03:08:33.936Z,66.72
2023-05-13T03:11:01.674Z,66.96
2023-05-13T03:13:30.113Z,66.80
2023-05-13T03:15:56.879Z,66.98
2023-05-13T03:18:23.671Z,66.90
2023-05-13T03:20:50.927Z,66.39
2023-05-13T03:23:18.271Z,65.41
2023-05-13T03:25:46.075Z,64.89
2023-05-13T03:28:13.527Z,64.86
2023-05-13T03:30:44.526Z,64.72
2023-05-13T03:33:17.727Z,64.40
2023-05-13T03:35:45.717Z,64.43
2023-05-13T03:38:12.551Z,64.51
2023-05-13T03:40:42.707Z,64.41
2023-05-13T03:43:09.777Z,64.25
2023-05-13T03:45:36.982Z,63.90
2023-05-13T03:48:07.032Z,63.95
2023-05-13T03:50:33.840Z,63.68
2023-05-13T03:53:00.737Z,63.63
2023-05-13T03:55:27.598Z,63.27
2023-05-13T03:57:54.551Z,62.97
2023-05-13T04:00:21.666Z,62.69
2023-05-13T04:02:48.995Z,62.44
2023-05-13T04:05:17.853Z,62.38
2023-05-13T04:07:46.521Z,62.10
2023-05-13T04:10:15.421Z,61.81
2023-05-13T04:12:42.526Z,61.62
2023-05-13T04:15:09.704Z,61.50
2023-05-13T04:17:39.303Z,61.08
2023-05-13T04:20:07.621Z,60.64
2023-05-13T04:22:34.904Z,60.37
2023-05-13T04:25:01.752Z,60.09
2023-05-13T04:27:28.526Z,59.77
2023-05-13T04:30:01.507Z,59.28
2023-05-13T04:32:31.321Z,58.88
2023-05-13T04:34:58.526Z,58.24
2023-05-13T04:37:26.690Z,57.55
2023-05-13T04:39:56.773Z,57.14
2023-05-13T04:42:24.330Z,56.95
2023-05-13T04:44:51.244Z,56.76
2023-05-13T04:47:18.640Z,56.50
2023-05-13T04:49:45.673Z,56.59
2023-05-13T04:52:13.333Z,56.25
2023-05-13T04:54:40.385Z,55.97
2023-05-13T04:57:07.513Z,55.75
2023-05-13T04:59:35.315Z,55.09
2023-05-13T05:02:02.481Z,54.75
2023-05-13T05:04:29.567Z,53.96
2023-05-13T05:06:57.305Z,53.13
2023-05-13T05:09:24.147Z,52.78
2023-05-13T05:11:52.356Z,52.54
2023-05-13T05:14:20.826Z,52.08
2023-05-13T05:16:49.459Z,51.72
2023-05-13T05:19:16.282Z,51.35
2023-05-13T05:21:43.278Z,51.15
2023-05-13T05:24:11.031Z,50.89
2023-05-13T05:26:37.833Z,50.65
2023-05-13T05:29:05.773Z,50.56
2023-05-13T05:31:33.040Z,50.45
2023-05-13T05:34:01.898Z,50.46
2023-05-13T05:36:29.356Z,50.48
2023-05-13T05:38:56.149Z,50.43
2023-05-13T05:41:29.789Z,49.98
2023-05-13T05:43:56.877Z,49.40
2023-05-13T05:46:23.693Z,48.87
2023-05-13T05:48:50.911Z,48.28
2023-05-13T05:51:17.649Z,47.86
2023-05-13T05:53:44.442Z,47.39
2023-05-13T05:56:13.102Z,47.19
2023-05-13T05:58:39.951Z,47.04
2023-05-13T06:01:06.769Z,47.12
2023-05-13T06:03:33.880Z,47.01
2023-05-13T06:06:00.907Z,46.71
2023-05-13T06:08:31.088Z,46.80
2023-05-13T06:10:58.394Z,46.75
2023-05-13T06:13:26.248Z,46.67
2023-05-13T06:15:53.149Z,46.15
2023-05-13T06:18:20.124Z,45.25
2023-05-13T06:20:47.316Z,44.83
2023-05-13T06:23:15.122Z,44.77
2023-05-13T06:25:42.239Z,44.89
2023-05-13T06:28:10.836Z,45.10
2023-05-13T06:30:38.757Z,45.01
2023-05-13T06:33:05.926Z,45.13
2023-05-13T06:35:32.997Z,45.18
2023-05-13T06:38:02.667Z,45.29
2023-05-13T06:40:29.696Z,45.14
2023-05-13T06:42:56.559Z,45.27
2023-05-13T06:45:29.166Z,45.34
2023-05-13T06:47:56.615Z,45.25
2023-05-13T06:50:23.992Z,45.11
2023-05-13T06:52:50.928Z,45.14
2023-05-13T06:55:19.201Z,45.03
2023-05-13T06:57:47.354Z,44.96
2023-05-13T07:00:15.133Z,44.83
2023-05-13T07:02:42.248Z,44.81
2023-05-13T07:05:11.313Z,44.61
2023-05-13T07:07:38.728Z,44.49
2023-05-13T07:10:05.809Z,44.62
2023-05-13T07:12:32.942Z,44.57
2023-05-13T07:14:59.793Z,44.54
2023-05-13T07:17:27.149Z,44.54
2023-05-13T07:19:55.654Z,44.61
2023-05-13T07:22:23.071Z,44.76
2023-05-13T07:24:49.898Z,43.98
2023-05-13T07:27:17.131Z,43.29
2023-05-13T07:29:43.902Z,43.46
2023-05-13T07:32:10.772Z,43.57
2023-05-13T07:34:38.050Z,43.12
2023-05-13T07:37:05.347Z,42.65
2023-05-13T07:39:32.181Z,42.24
2023-05-13T07:41:58.982Z,41.73
2023-05-13T07:44:26.101Z,41.21
2023-05-13T07:46:54.256Z,41.34
2023-05-13T07:49:21.226Z,41.61
2023-05-13T07:51:47.967Z,41.81
2023-05-13T07:54:14.951Z,41.76
2023-05-13T07:56:44.879Z,41.60
2023-05-13T07:59:11.637Z,41.52
2023-05-13T08:01:38.443Z,41.14
2023-05-13T08:04:05.520Z,40.43
2023-05-13T08:06:33.135Z,40.52
2023-05-13T08:09:00.291Z,40.37
2023-05-13T08:11:27.698Z,40.06
2023-05-13T08:13:54.579Z,40.10
2023-05-13T08:16:21.747Z,40.10
2023-05-13T08:18:48.571Z,39.94
2023-05-13T08:21:15.402Z,39.83
2023-05-13T08:23:45.482Z,39.75
2023-05-13T08:26:13.548Z,39.41
2023-05-13T08:28:41.944Z,39.35
2023-05-13T08:31:13.857Z,39.16
2023-05-13T08:33:46.228Z,39.29
2023-05-13T08:36:13.078Z,39.19
2023-05-13T08:38:39.940Z,39.17
2023-05-13T08:41:06.799Z,39.06
2023-05-13T08:43:34.169Z,38.71
2023-05-13T08:46:04.380Z,38.03
2023-05-13T08:48:32.048Z,37.73
2023-05-13T08:50:58.857Z,37.44
2023-05-13T08:53:26.820Z,37.45
2023-05-13T08:55:53.727Z,37.12
2023-05-13T08:58:20.611Z,36.37
2023-05-13T09:00:49.376Z,35.85
2023-05-13T09:03:16.278Z,35.49
2023-05-13T09:05:46.450Z,35.00
2023-05-13T09:08:13.674Z,34.67
2023-05-13T09:10:40.469Z,34.08
2023-05-13T09:13:08.291Z,33.64
2023-05-13T09:15:35.253Z,33.31
2023-05-13T09:18:06.077Z,33.15
2023-05-13T09:20:33.412Z,32.98
2023-05-13T09:23:06.186Z,32.00
2023-05-13T09:25:33.030Z,30.95
2023-05-13T09:28:04.045Z,30.44
2023-05-13T09:30:33.883Z,29.86
2023-05-13T09:33:04.598Z,29.18
2023-05-13T09:35:32.333Z,28.89
2023-05-13T09:37:59.223Z,28.97
2023-05-13T09:40:26.121Z,28.58
2023-05-13T09:42:57.712Z,28.26
2023-05-13T09:45:24.553Z,27.39
2023-05-13T09:47:54.796Z,26.72
2023-05-13T09:50:21.946Z,25.91
2023-05-13T09:52:49.193Z,25.21
2023-05-13T09:55:16.399Z,24.53
2023-05-13T09:57:43.302Z,24.35
2023-05-13T10:00:17.888Z,24.30
2023-05-13T10:02:48.315Z,23.99
2023-05-13T10:05:15.199Z,23.74
2023-05-13T10:07:41.994Z,23.20
2023-05-13T10:10:09.554Z,22.79
2023-05-13T10:12:36.607Z,22.82
2023-05-13T10:15:05.316Z,22.78
2023-05-13T10:17:32.149Z,22.98
2023-05-13T10:19:58.957Z,23.10
2023-05-13T10:22:30.360Z,23.00
2023-05-13T10:24:58.552Z,22.67
2023-05-13T10:27:30.464Z,22.60
2023-05-13T10:29:58.110Z,22.58
2023-05-13T10:32:26.113Z,22.20
2023-05-13T10:35:13.132Z,22.01
2023-05-13T10:38:17.795Z,21.80
2023-05-13T10:41:00.031Z,21.69
2023-05-13T10:43:30.226Z,21.69
2023-05-13T10:46:01.412Z,21.89
2023-05-13T10:48:58.201Z,22.01
2023-05-13T10:51:25.148Z,21.81
2023-05-13T10:53:56.707Z,21.60
2023-05-13T10:56:24.550Z,21.30
2023-05-13T10:59:02.647Z,21.10
2023-05-13T11:01:36.136Z,20.89
2023-05-13T11:04:04.618Z,20.52
2023-05-13T11:06:39.650Z,20.19
2023-05-13T11:09:07.408Z,20.18
2023-05-13T11:11:35.698Z,20.67
2023-05-13T11:14:08.459Z,20.24
2023-05-13T11:16:36.330Z,20.47
2023-05-13T11:19:04.091Z,20.82
2023-05-13T11:21:30.809Z,21.34
2023-05-13T11:24:05.660Z,21.50
2023-05-13T11:26:46.578Z,21.69
2023-05-13T11:29:13.898Z,21.74
2023-05-13T11:31:53.182Z,22.13
2023-05-13T11:34:20.163Z,22.36
2023-05-13T11:36:48.831Z,22.59
2023-05-13T11:39:17.421Z,22.36
2023-05-13T11:41:48.762Z,22.41
2023-05-13T11:44:17.489Z,22.75
2023-05-13T11:47:00.604Z,23.13
2023-05-13T11:49:39.856Z,23.48
2023-05-13T11:52:07.486Z,23.77
2023-05-13T11:57:32.833Z,24.26
2023-05-13T12:00:03.628Z,24.59
2023-05-13T12:02:39.428Z,24.98
2023-05-13T12:05:07.681Z,24.86
2023-05-13T12:07:35.085Z,24.68
2023-05-13T12:10:02.387Z,24.70
2023-05-13T12:12:30.124Z,24.51
2023-05-13T12:14:59.788Z,24.63
2023-05-13T12:17:26.682Z,25.01
2023-05-13T12:20:07.071Z,25.35
2023-05-13T12:22:34.631Z,25.38
2023-05-13T12:25:23.396Z,25.57
2023-05-13T12:27:53.687Z,25.93
2023-05-13T12:30:20.508Z,26.23
2023-05-13T12:32:47.491Z,26.45
2023-05-13T12:35:14.724Z,26.59
2023-05-13T12:37:41.730Z,26.84
2023-05-13T12:40:12.366Z,27.25
2023-05-13T12:42:39.129Z,27.52
2023-05-13T12:45:06.317Z,27.42
2023-05-13T12:47:49.030Z,27.64
2023-05-13T12:50:16.100Z,27.85
2023-05-13T12:52:42.836Z,28.06
2023-05-13T12:55:10.063Z,28.00
2023-05-13T12:57:37.198Z,28.05
2023-05-13T13:00:05.655Z,27.71
2023-05-13T13:02:32.571Z,28.04
2023-05-13T13:04:59.704Z,28.15
2023-05-13T13:07:26.421Z,28.25
2023-05-13T13:09:55.346Z,28.34
2023-05-13T13:12:22.110Z,28.17
2023-05-13T13:14:49.022Z,27.84
2023-05-13T13:17:15.773Z,27.59
2023-05-13T13:19:42.533Z,27.37
2023-05-13T13:22:09.301Z,27.49
2023-05-13T13:24:36.099Z,27.71
2023-05-13T13:27:02.859Z,27.98
2023-05-13T13:29:29.649Z,28.21
2023-05-13T13:31:56.509Z,28.37
2023-05-13T13:34:23.284Z,28.63
2023-05-13T13:36:50.082Z,28.62
2023-05-13T13:39:17.004Z,28.70
2023-05-13T13:41:43.842Z,28.77
2023-05-13T13:44:10.573Z,28.87
2023-05-13T13:46:37.485Z,28.83
2023-05-13T13:49:16.293Z,28.88
2023-05-13T13:51:49.830Z,29.01
2023-05-13T13:54:16.619Z,29.15
2023-05-13T13:56:59.629Z,28.98
2023-05-13T13:59:26.415Z,29.16
2023-05-13T14:01:54.023Z,29.19
2023-05-13T14:04:23.722Z,29.30
2023-05-13T14:06:51.292Z,29.39
2023-05-13T14:09:18.614Z,29.43
2023-05-13T14:11:45.708Z,29.54
2023-05-13T14:14:12.736Z,29.84
2023-05-13T14:16:39.499Z,29.95
2023-05-13T14:19:06.390Z,29.92
2023-05-13T14:21:33.192Z,30.17
2023-05-13T14:23:59.979Z,30.50
2023-05-13T14:26:27.081Z,30.53
2023-05-13T14:28:54.297Z,30.71
2023-05-13T14:31:21.145Z,30.69
2023-05-13T14:33:48.474Z,30.65
2023-05-13T14:36:16.430Z,30.83
2023-05-13T14:38:43.905Z,30.94
2023-05-13T14:41:11.100Z,30.96
2023-05-13T14:43:38.226Z,30.96
2023-05-13T14:46:05.055Z,30.97
2023-05-13T14:48:31.948Z,31.21
2023-05-13T14:50:58.901Z,31.17
2023-05-13T14:53:25.829Z,31.16
2023-05-13T14:55:53.537Z,30.94
2023-05-13T14:58:20.368Z,31.21
2023-05-13T15:00:47.308Z,31.34
2023-05-13T15:03:14.337Z,31.13
2023-05-13T15:05:43.864Z,31.15
2023-05-13T15:08:11.236Z,31.12
2023-05-13T15:10:38.051Z,31.16
2023-05-13T15:13:04.769Z,31.00
2023-05-13T15:15:33.738Z,31.11
2023-05-13T15:18:00.727Z,31.16
2023-05-13T15:20:28.620Z,31.22
2023-05-13T15:22:55.741Z,31.37
2023-05-13T15:25:22.508Z,31.66
2023-05-13T15:27:50.534Z,31.82
2023-05-13T15:30:17.235Z,31.71
2023-05-13T15:32:44.031Z,31.79
2023-05-13T15:35:10.858Z,31.87
2023-05-13T15:37:37.640Z,32.05
2023-05-13T15:40:04.949Z,31.82
2023-05-13T15:42:31.693Z,31.63
2023-05-13T15:44:58.501Z,31.90
2023-05-13T15:47:25.556Z,32.84
2023-05-13T15:49:54.237Z,33.11
2023-05-13T15:52:21.084Z,33.17
2023-05-13T15:54:47.830Z,33.53
2023-05-13T15:57:15.060Z,33.44
2023-05-13T15:59:41.794Z,33.38
2023-05-13T16:02:08.723Z,33.56
2023-05-13T16:04:36.066Z,33.78
2023-05-13T16:07:02.837Z,33.68
2023-05-13T16:09:29.624Z,33.62
2023-05-13T16:11:56.928Z,33.63
2023-05-13T16:14:23.765Z,33.63
2023-05-13T16:16:50.545Z,33.79
2023-05-13T16:19:17.384Z,33.90
2023-05-13T16:21:44.402Z,34.05
2023-05-13T16:24:11.371Z,34.23
2023-05-13T16:26:38.232Z,34.53
2023-05-13T16:29:05.110Z,34.59
2023-05-13T16:31:32.046Z,34.82
2023-05-13T16:33:59.034Z,34.91
2023-05-13T16:36:26.791Z,35.47
2023-05-13T16:38:53.637Z,36.75
2023-05-13T16:41:21.184Z,37.46
2023-05-13T16:43:48.170Z,37.72
2023-05-13T16:46:15.451Z,37.84
2023-05-13T16:48:44.693Z,38.02
2023-05-13T16:51:11.662Z,38.04
2023-05-13T16:53:38.417Z,38.00
2023-05-13T16:56:05.618Z,38.21
2023-05-13T16:58:32.374Z,38.16
2023-05-13T17:00:59.683Z,38.23
2023-05-13T17:03:26.996Z,38.71
2023-05-13T17:05:54.173Z,39.07
2023-05-13T17:08:21.558Z,39.01
2023-05-13T17:10:48.588Z,39.51
2023-05-13T17:13:16.426Z,39.65
2023-05-13T17:15:44.321Z,39.63
2023-05-13T17:18:11.117Z,39.87
2023-05-13T17:20:37.870Z,39.93
2023-05-13T17:23:04.638Z,40.45
2023-05-13T17:25:31.378Z,41.02
2023-05-13T17:27:58.150Z,41.30
2023-05-13T17:30:24.989Z,41.40
2023-05-13T17:32:52.011Z,41.49
2023-05-13T17:35:19.069Z,41.74
2023-05-13T17:37:45.841Z,41.98
2023-05-13T17:40:12.991Z,42.17
2023-05-13T17:42:39.783Z,42.73
2023-05-13T17:45:07.542Z,43.05
2023-05-13T17:47:34.500Z,42.96
2023-05-13T17:50:01.263Z,42.85
2023-05-13T17:52:28.165Z,43.13
2023-05-13T17:54:55.079Z,43.42
2023-05-13T17:57:21.923Z,43.69
2023-05-13T17:59:48.679Z,44.12
2023-05-13T18:02:15.729Z,44.31
2023-05-13T18:04:42.912Z,44.66
2023-05-13T18:07:09.858Z,45.06
2023-05-13T18:09:36.629Z,45.38
2023-05-13T18:12:03.626Z,45.68
2023-05-13T18:14:32.410Z,45.89
2023-05-13T18:16:59.892Z,45.98
2023-05-13T18:19:27.527Z,46.24
2023-05-13T18:21:54.267Z,46.59
2023-05-13T18:24:21.243Z,46.93
2023-05-13T18:26:48.183Z,46.83
2023-05-13T18:29:14.941Z,46.88
2023-05-13T18:31:41.719Z,46.87
2023-05-13T18:34:08.617Z,46.98
2023-05-13T18:36:35.455Z,47.15
2023-05-13T18:39:02.387Z,47.32
2023-05-13T18:41:29.140Z,47.49
2023-05-13T18:43:55.991Z,47.32
2023-05-13T18:46:23.174Z,47.06
2023-05-13T18:48:49.968Z,47.03
2023-05-13T18:51:16.971Z,46.83
2023-05-13T18:53:43.993Z,47.03
2023-05-13T18:56:10.728Z,47.17
2023-05-13T18:58:37.553Z,47.77
2023-05-13T19:01:04.535Z,47.89
2023-05-13T19:03:31.516Z,47.97
2023-05-13T19:05:58.394Z,47.94
2023-05-13T19:08:25.266Z,48.30
2023-05-13T19:10:52.021Z,48.20
2023-05-13T19:13:21.189Z,47.90
2023-05-13T19:15:49.076Z,47.97
2023-05-13T19:18:15.939Z,48.32
2023-05-13T19:20:43.776Z,48.24
2023-05-13T19:23:10.701Z,48.49
2023-05-13T19:25:42.205Z,48.66
2023-05-13T19:28:12.526Z,48.69
2023-05-13T19:30:39.648Z,48.85
2023-05-13T19:33:06.469Z,48.85
2023-05-13T19:35:33.340Z,48.75
2023-05-13T19:38:00.782Z,48.75
2023-05-13T19:40:27.612Z,48.74
2023-05-13T19:42:56.577Z,48.82
2023-05-13T19:45:23.365Z,48.73
2023-05-13T19:47:50.402Z,48.53
2023-05-13T19:50:18.090Z,48.47
2023-05-13T19:52:44.849Z,48.32
2023-05-13T19:55:11.652Z,48.13
2023-05-13T19:57:42.535Z,47.87
2023-05-13T20:00:10.891Z,47.81
2023-05-13T20:02:38.479Z,47.89
2023-05-13T20:05:06.251Z,47.74
2023-05-13T20:07:32.994Z,47.54
2023-05-13T20:09:59.695Z,47.08
2023-05-13T20:12:26.589Z,46.50
2023-05-13T20:14:56.115Z,45.92
2023-05-13T20:17:22.933Z,45.39
2023-05-13T20:19:50.108Z,45.17
2023-05-13T20:22:17.763Z,45.01
2023-05-13T20:24:47.027Z,44.82
2023-05-13T20:27:14.042Z,44.87
2023-05-13T20:29:49.896Z,44.82
2023-05-13T20:32:24.857Z,44.69
2023-05-13T20:34:52.817Z,44.60
2023-05-13T20:37:23.367Z,44.74
2023-05-13T20:39:50.909Z,44.73
2023-05-13T20:42:17.878Z,44.78
2023-05-13T20:44:46.487Z,44.91
2023-05-13T20:47:13.742Z,44.91
2023-05-13T20:49:43.883Z,44.74
2023-05-13T20:52:11.782Z,44.57
2023-05-13T20:54:38.845Z,44.38
2023-05-13T20:57:05.767Z,44.38
2023-05-13T20:59:32.764Z,44.06
2023-05-13T21:01:59.744Z,43.97
2023-05-13T21:04:26.854Z,43.80
2023-05-13T21:06:53.693Z,43.61
2023-05-13T21:09:20.652Z,43.51
2023-05-13T21:11:47.715Z,43.39
2023-05-13T21:14:14.577Z,43.26
2023-05-13T21:16:41.368Z,43.38
2023-05-13T21:19:08.304Z,43.53
2023-05-13T21:21:35.158Z,43.63
2023-05-13T21:24:01.907Z,43.95
2023-05-13T21:26:28.639Z,44.00
2023-05-13T21:28:55.480Z,44.21
2023-05-13T21:31:22.747Z,44.94
2023-05-13T21:33:49.508Z,44.75
2023-05-13T21:36:16.246Z,43.79
2023-05-13T21:38:43.176Z,43.34
2023-05-13T21:41:09.918Z,43.40
2023-05-13T21:43:36.627Z,43.61
2023-05-13T21:46:03.516Z,43.56
2023-05-13T21:48:30.309Z,43.16
2023-05-13T21:50:58.797Z,42.67
2023-05-13T21:53:25.883Z,42.42
2023-05-13T21:55:55.680Z,42.27
2023-05-13T21:58:23.601Z,42.29
2023-05-13T22:00:50.965Z,42.11
2023-05-13T22:03:17.835Z,42.11
2023-05-13T22:05:45.194Z,42.11
2023-05-13T22:08:12.112Z,42.03
2023-05-13T22:10:39.047Z,41.94
2023-05-13T22:13:06.301Z,41.96
2023-05-13T22:15:33.085Z,41.92
2023-05-13T22:17:59.926Z,41.83
2023-05-13T22:20:26.786Z,41.87
2023-05-13T22:22:53.665Z,41.85
2023-05-13T22:25:20.480Z,41.92
2023-05-13T22:27:47.866Z,42.02
2023-05-13T22:30:14.937Z,42.08
2023-05-13T22:32:41.700Z,42.09
2023-05-13T22:35:09.137Z,42.18
2023-05-13T22:37:36.069Z,42.25
2023-05-13T22:40:02.879Z,42.36
2023-05-13T22:42:29.730Z,42.46
2023-05-13T22:44:56.581Z,42.50
2023-05-13T22:47:23.494Z,42.45
2023-05-13T22:49:50.263Z,43.02
2023-05-13T22:52:17.022Z,43.15
2023-05-13T22:54:43.793Z,43.09
2023-05-13T22:57:10.534Z,43.18
2023-05-13T22:59:37.336Z,43.07
2023-05-13T23:02:04.807Z,43.04
2023-05-13T23:04:31.810Z,43.04
2023-05-13T23:06:58.676Z,43.09
2023-05-13T23:09:25.510Z,43.20
2023-05-13T23:11:52.214Z,43.32
2023-05-13T23:14:18.997Z,43.37
2023-05-13T23:16:45.906Z,43.53
2023-05-13T23:19:12.955Z,43.36
2023-05-13T23:21:39.782Z,43.29
2023-05-13T23:24:06.540Z,43.33
2023-05-13T23:26:33.262Z,43.38
2023-05-13T23:29:00.033Z,43.39
2023-05-13T23:31:26.823Z,43.35
2023-05-13T23:33:53.618Z,43.34
2023-05-13T23:36:21.528Z,43.52
2023-05-13T23:38:48.467Z,43.49
2023-05-13T23:41:15.374Z,43.49
2023-05-13T23:43:42.265Z,43.58
2023-05-13T23:46:09.558Z,43.55
2023-05-13T23:48:36.326Z,43.80
2023-05-13T23:51:03.178Z,44.10
2023-05-13T23:53:29.975Z,44.19
2023-05-13T23:55:57.136Z,44.24
2023-05-13T23:58:23.878Z,44.37
